Huvudsida
METAR-TAF:

METAR-TAF

Flygplatser :

Pärnu flygplats

Pärnu, Estland

latitud: 58-25-09N, longitud: 024-28-22E, höjd: 14 m

Aktuellt väderrapport

Denna rapport gjordes för 9 timmar och 12 minuter sedan, klockan 13:50 UTC
Vind 8 kt från syd
Temperatur -2°C
Fuktighet 100%
Tryck 1011 hPa
Sikt: 3600 m
Brutna moln på en höjd av 600 ft
Mulet på en höjd av 900 ft
fuktdis

METAR: EEPU 231350Z 19008KT 3600 BR BKN006 OVC009 M02/M02 Q1011

Tid: 01:02 (23:02 UTC)


TAF: saknas

Aktuella väderrapporter och prognoser från 4000 flygplatser (METAR- och TAF-rapporter).

De tillgängliga stationerna syns som gula och röda prickar på kartan.

För musen över prickarna för att se namnen på stationerna.

Klicka sedan för att få väderrapporter och prognoser.

För att ändra kartan: Klicka på de gröna knapparna med ett svart kors på för att zooma in; den gröna knappen med ett streck på för att zooma ut; eller på de gröna pilarna för angränsande kartor.


METAR-TAF: